createdAt,value
2023-01-10T00:00:55.634Z,6.70
2023-01-10T00:01:55.759Z,7.70
2023-01-10T00:02:55.969Z,5.00
2023-01-10T00:03:55.984Z,5.10
2023-01-10T00:04:56.158Z,3.50
2023-01-10T00:05:56.206Z,7.70
2023-01-10T00:06:56.337Z,8.30
2023-01-10T00:07:56.461Z,4.80
2023-01-10T00:08:56.625Z,6.00
2023-01-10T00:09:56.731Z,4.30
2023-01-10T00:10:56.875Z,4.30
2023-01-10T00:11:57.047Z,5.70
2023-01-10T00:12:57.163Z,5.80
2023-01-10T00:13:57.315Z,4.20
2023-01-10T00:14:57.454Z,6.10
2023-01-10T00:15:57.638Z,5.30
2023-01-10T00:16:57.652Z,5.90
2023-01-10T00:17:57.800Z,5.60
2023-01-10T00:18:57.950Z,4.20
2023-01-10T00:19:58.071Z,6.30
2023-01-10T00:20:58.203Z,5.30
2023-01-10T00:21:58.377Z,4.10
2023-01-10T00:22:58.505Z,6.20
2023-01-10T00:23:58.645Z,4.60
2023-01-10T00:24:58.762Z,4.70
2023-01-10T00:25:58.895Z,6.60
2023-01-10T00:26:59.012Z,4.70
2023-01-10T00:27:59.153Z,3.40
2023-01-10T00:28:59.304Z,4.30
2023-01-10T00:29:59.423Z,5.90
2023-01-10T00:30:59.547Z,6.20
2023-01-10T00:31:59.685Z,5.70
2023-01-10T00:32:59.811Z,5.00
2023-01-10T00:33:59.962Z,6.10
2023-01-10T00:35:00.097Z,5.60
2023-01-10T00:36:00.221Z,4.40
2023-01-10T00:37:00.353Z,3.90
2023-01-10T00:38:00.486Z,3.30
2023-01-10T00:39:00.661Z,4.70
2023-01-10T00:40:00.808Z,4.80
2023-01-10T00:41:00.925Z,5.40
2023-01-10T00:42:01.060Z,5.50
2023-01-10T00:43:01.186Z,6.30
2023-01-10T00:44:01.338Z,4.20
2023-01-10T00:45:01.482Z,4.50
2023-01-10T00:46:01.645Z,5.10
2023-01-10T00:47:01.821Z,4.60
2023-01-10T00:48:01.970Z,4.00
2023-01-10T00:49:02.127Z,7.30
2023-01-10T00:50:02.284Z,4.20
2023-01-10T00:51:02.419Z,5.30
2023-01-10T00:52:02.567Z,5.30
2023-01-10T00:53:02.722Z,6.10
2023-01-10T00:54:02.877Z,4.60
2023-01-10T00:55:03.021Z,4.30
2023-01-10T00:56:03.219Z,5.40
2023-01-10T00:57:03.223Z,3.60
2023-01-10T00:58:03.357Z,4.50
2023-01-10T00:59:03.488Z,4.50
2023-01-10T01:00:03.620Z,4.30
2023-01-10T01:01:03.770Z,4.70
2023-01-10T01:02:04.000Z,5.40
2023-01-10T01:03:04.064Z,4.40
2023-01-10T01:04:04.117Z,7.00
2023-01-10T01:05:04.244Z,5.70
2023-01-10T01:06:04.373Z,7.40
2023-01-10T01:07:04.509Z,6.90
2023-01-10T01:08:04.639Z,4.40
2023-01-10T01:09:04.793Z,8.30
2023-01-10T01:10:04.920Z,6.30
2023-01-10T01:11:05.046Z,4.90
2023-01-10T01:12:05.188Z,4.50
2023-01-10T01:13:05.313Z,5.80
2023-01-10T01:14:05.456Z,5.20
2023-01-10T01:15:05.590Z,6.50
2023-01-10T01:16:05.774Z,6.00
2023-01-10T01:17:05.879Z,4.90
2023-01-10T01:18:06.007Z,5.50
2023-01-10T01:19:06.142Z,5.90
2023-01-10T01:20:06.295Z,6.80
2023-01-10T01:21:06.413Z,7.60
2023-01-10T01:22:06.560Z,5.70
2023-01-10T01:23:06.689Z,4.90
2023-01-10T01:24:06.853Z,6.10
2023-01-10T01:25:06.998Z,5.40
2023-01-10T01:26:07.152Z,5.00
2023-01-10T01:27:07.270Z,4.70
2023-01-10T01:28:07.398Z,6.80
2023-01-10T01:29:07.534Z,5.40
2023-01-10T01:30:07.683Z,6.40
2023-01-10T01:31:07.852Z,6.30
2023-01-10T01:32:07.940Z,8.30
2023-01-10T01:33:08.072Z,6.70
2023-01-10T01:34:08.237Z,6.20
2023-01-10T01:35:08.362Z,6.10
2023-01-10T01:36:08.511Z,5.00
2023-01-10T01:37:08.640Z,7.00
2023-01-10T01:38:08.774Z,5.30
2023-01-10T01:39:08.926Z,5.80
2023-01-10T01:40:09.061Z,5.50
2023-01-10T01:41:09.188Z,5.10
2023-01-10T01:42:09.328Z,7.10
2023-01-10T01:43:09.467Z,5.50
2023-01-10T01:44:09.607Z,3.90
2023-01-10T01:45:09.750Z,6.00
2023-01-10T01:46:09.910Z,5.30
2023-01-10T01:47:10.040Z,7.10
2023-01-10T01:48:10.165Z,4.90
2023-01-10T01:49:10.318Z,7.30
2023-01-10T01:50:10.455Z,7.80
2023-01-10T01:51:10.596Z,8.30
2023-01-10T01:52:10.733Z,8.00
2023-01-10T01:53:10.890Z,6.50
2023-01-10T01:54:11.059Z,8.10
2023-01-10T01:55:11.201Z,5.40
2023-01-10T01:56:11.335Z,8.60
2023-01-10T01:57:11.467Z,5.10
2023-01-10T01:58:11.635Z,9.50
2023-01-10T01:59:11.789Z,5.60
2023-01-10T02:00:11.931Z,8.20
2023-01-10T02:01:12.125Z,3.80
2023-01-10T02:02:12.290Z,8.00
2023-01-10T02:03:12.434Z,6.30
2023-01-10T02:04:12.637Z,7.30
2023-01-10T02:05:12.629Z,5.10
2023-01-10T02:06:12.777Z,7.40
2023-01-10T02:07:12.906Z,6.50
2023-01-10T02:08:13.038Z,8.10
2023-01-10T02:09:13.186Z,8.00
2023-01-10T02:10:13.323Z,6.90
2023-01-10T02:11:13.477Z,10.00
2023-01-10T02:12:13.613Z,6.40
2023-01-10T02:13:13.740Z,6.90
2023-01-10T02:14:13.925Z,6.60
2023-01-10T02:15:13.942Z,7.80
2023-01-10T02:16:14.116Z,5.40
2023-01-10T02:17:14.237Z,5.80
2023-01-10T02:18:14.393Z,10.20
2023-01-10T02:19:14.533Z,7.50
2023-01-10T02:20:14.685Z,6.50
2023-01-10T02:21:14.810Z,7.20
2023-01-10T02:22:14.967Z,6.70
2023-01-10T02:23:15.101Z,7.60
2023-01-10T02:24:15.277Z,8.30
2023-01-10T02:25:15.411Z,6.70
2023-01-10T02:26:15.550Z,8.10
2023-01-10T02:27:15.680Z,9.20
2023-01-10T02:28:15.821Z,6.00
2023-01-10T02:29:15.973Z,6.60
2023-01-10T02:30:16.114Z,6.90
2023-01-10T02:31:16.389Z,6.40
2023-01-10T02:32:16.409Z,5.40
2023-01-10T02:33:16.535Z,6.90
2023-01-10T02:34:16.699Z,5.30
2023-01-10T02:35:16.808Z,7.70
2023-01-10T02:36:16.948Z,5.10
2023-01-10T02:37:17.079Z,6.60
2023-01-10T02:38:17.209Z,7.60
2023-01-10T02:39:17.361Z,6.00
2023-01-10T02:40:17.499Z,5.50
2023-01-10T02:41:17.622Z,6.50
2023-01-10T02:42:17.754Z,9.00
2023-01-10T02:43:17.878Z,5.90
2023-01-10T02:44:18.353Z,5.00
2023-01-10T02:45:18.184Z,8.10
2023-01-10T02:46:18.340Z,8.60
2023-01-10T02:47:18.455Z,8.00
2023-01-10T02:48:18.608Z,7.70
2023-01-10T02:49:18.744Z,4.10
2023-01-10T02:50:18.887Z,7.10
2023-01-10T02:51:19.009Z,5.20
2023-01-10T02:52:19.146Z,5.50
2023-01-10T02:53:19.271Z,8.30
2023-01-10T02:54:19.468Z,7.10
2023-01-10T02:55:19.485Z,6.10
2023-01-10T02:56:19.636Z,8.10
2023-01-10T02:57:19.768Z,5.70
2023-01-10T02:58:19.908Z,7.20
2023-01-10T02:59:20.068Z,7.40
2023-01-10T03:00:20.205Z,6.40
2023-01-10T03:01:20.437Z,6.90
2023-01-10T03:02:20.485Z,9.60
2023-01-10T03:03:20.615Z,9.10
2023-01-10T03:04:20.781Z,9.10
2023-01-10T03:05:20.902Z,6.80
2023-01-10T03:06:21.041Z,5.60
2023-01-10T03:07:21.180Z,6.60
2023-01-10T03:08:21.321Z,8.00
2023-01-10T03:09:21.482Z,7.90
2023-01-10T03:10:21.620Z,8.40
2023-01-10T03:11:21.743Z,10.10
2023-01-10T03:12:21.879Z,8.70
2023-01-10T03:13:22.001Z,8.20
2023-01-10T03:14:22.159Z,8.20
2023-01-10T03:15:22.292Z,13.30
2023-01-10T03:16:22.476Z,8.00
2023-01-10T03:17:22.604Z,8.60
2023-01-10T03:18:22.737Z,9.60
2023-01-10T03:19:22.902Z,10.60
2023-01-10T03:20:23.042Z,9.80
2023-01-10T03:21:23.164Z,9.70
2023-01-10T03:22:23.314Z,8.50
2023-01-10T03:23:23.441Z,8.00
2023-01-10T03:24:23.587Z,10.30
2023-01-10T03:25:23.711Z,9.00
2023-01-10T03:26:23.867Z,10.80
2023-01-10T03:27:23.998Z,11.60
2023-01-10T03:28:24.148Z,16.00
2023-01-10T03:29:24.296Z,11.30
2023-01-10T03:30:24.443Z,12.20
2023-01-10T03:31:24.569Z,13.20
2023-01-10T03:32:24.693Z,12.00
2023-01-10T03:33:24.833Z,13.90
2023-01-10T03:34:25.024Z,15.30
2023-01-10T03:35:25.127Z,14.30
2023-01-10T03:36:25.263Z,14.50
2023-01-10T03:37:25.397Z,14.10
2023-01-10T03:38:25.544Z,16.20
2023-01-10T03:39:25.687Z,15.60
2023-01-10T03:40:25.847Z,13.30
2023-01-10T03:41:25.989Z,15.00
2023-01-10T03:42:26.152Z,15.60
2023-01-10T03:43:26.281Z,14.00
2023-01-10T03:44:26.446Z,17.80
2023-01-10T03:45:26.572Z,13.20
2023-01-10T03:46:26.726Z,14.30
2023-01-10T03:47:26.839Z,13.40
2023-01-10T03:48:26.983Z,12.60
2023-01-10T03:49:27.132Z,14.90
2023-01-10T03:50:27.277Z,17.60
2023-01-10T03:51:27.401Z,15.60
2023-01-10T03:52:27.564Z,13.50
2023-01-10T03:53:34.681Z,18.00
2023-01-10T03:54:27.840Z,17.70
2023-01-10T03:55:27.974Z,19.60
2023-01-10T03:56:28.130Z,17.60
2023-01-10T03:57:28.280Z,21.20
2023-01-10T03:58:28.438Z,19.80
2023-01-10T03:59:28.581Z,17.90
2023-01-10T04:00:28.735Z,17.90
2023-01-10T04:01:28.925Z,17.20
2023-01-10T04:02:28.968Z,22.50
2023-01-10T04:03:29.106Z,16.60
2023-01-10T04:04:29.278Z,17.50
2023-01-10T04:05:29.419Z,21.40
2023-01-10T04:06:29.622Z,14.60
2023-01-10T04:07:29.640Z,21.00
2023-01-10T04:08:29.792Z,19.90
2023-01-10T04:09:29.945Z,22.60
2023-01-10T04:10:30.105Z,19.60
2023-01-10T04:11:30.275Z,20.30
2023-01-10T04:12:30.407Z,23.90
2023-01-10T04:13:30.535Z,18.00
2023-01-10T04:14:30.701Z,22.70
2023-01-10T04:15:30.838Z,19.60
2023-01-10T04:16:31.046Z,20.70
2023-01-10T04:17:31.092Z,17.70
2023-01-10T04:18:31.239Z,18.50
2023-01-10T04:19:31.385Z,21.90
2023-01-10T04:20:31.532Z,21.70
2023-01-10T04:21:31.671Z,18.50
2023-01-10T04:22:31.819Z,20.70
2023-01-10T04:23:31.977Z,23.70
2023-01-10T04:24:32.131Z,25.30
2023-01-10T04:25:32.270Z,24.00
2023-01-10T04:26:32.440Z,22.80
2023-01-10T04:27:32.581Z,23.90
2023-01-10T04:28:32.750Z,23.20
2023-01-10T04:29:32.912Z,20.20
2023-01-10T04:30:33.063Z,23.60
2023-01-10T04:31:33.260Z,24.10
2023-01-10T04:32:33.347Z,24.80
2023-01-10T04:33:33.446Z,24.40
2023-01-10T04:34:33.584Z,26.80
2023-01-10T04:35:33.755Z,25.60
2023-01-10T04:36:33.842Z,23.20
2023-01-10T04:37:33.967Z,26.50
2023-01-10T04:38:34.118Z,25.80
2023-01-10T04:39:34.293Z,29.60
2023-01-10T04:40:34.431Z,25.00
2023-01-10T04:41:34.580Z,28.90
2023-01-10T04:42:34.725Z,27.50
2023-01-10T04:43:34.867Z,22.90
2023-01-10T04:44:35.021Z,29.00
2023-01-10T04:45:35.254Z,23.50
2023-01-10T04:46:35.285Z,23.20
2023-01-10T04:47:35.468Z,25.70
2023-01-10T04:48:36.884Z,22.60
2023-01-10T04:49:35.755Z,20.70
2023-01-10T04:50:35.884Z,20.70
2023-01-10T04:51:36.045Z,27.30
2023-01-10T04:52:36.196Z,25.40
2023-01-10T04:53:36.354Z,23.40
2023-01-10T04:54:36.507Z,26.30
2023-01-10T04:55:36.669Z,29.50
2023-01-10T04:56:36.807Z,23.70
2023-01-10T04:57:36.982Z,26.70
2023-01-10T04:58:37.122Z,23.80
2023-01-10T04:59:37.412Z,24.40
2023-01-10T05:00:37.370Z,22.80
2023-01-10T05:01:37.524Z,24.30
2023-01-10T05:02:37.790Z,22.50
2023-01-10T05:03:37.825Z,27.40
2023-01-10T05:04:37.931Z,24.50
2023-01-10T05:05:38.033Z,20.50
2023-01-10T05:06:38.130Z,26.90
2023-01-10T05:07:38.361Z,17.90
2023-01-10T05:08:38.495Z,27.90
2023-01-10T05:09:39.089Z,23.30
2023-01-10T05:10:38.788Z,26.10
2023-01-10T05:11:38.960Z,24.70
2023-01-10T05:12:39.098Z,26.60
2023-01-10T05:13:39.260Z,26.00
2023-01-10T05:14:39.469Z,26.90
2023-01-10T05:15:40.146Z,25.10
2023-01-10T05:16:39.678Z,25.00
2023-01-10T05:17:39.792Z,24.80
2023-01-10T05:18:39.926Z,24.50
2023-01-10T05:19:40.079Z,26.60
2023-01-10T05:20:40.225Z,28.20
2023-01-10T05:21:40.387Z,23.40
2023-01-10T05:22:40.541Z,26.90
2023-01-10T05:23:40.673Z,24.40
2023-01-10T05:24:40.842Z,24.30
2023-01-10T05:25:41.000Z,24.90
2023-01-10T05:26:41.139Z,28.00
2023-01-10T05:27:41.277Z,27.30
2023-01-10T05:28:41.415Z,24.80
2023-01-10T05:29:41.593Z,25.20
2023-01-10T05:30:41.723Z,27.00
2023-01-10T05:31:41.918Z,25.50
2023-01-10T05:32:41.965Z,23.90
2023-01-10T05:33:42.091Z,25.70
2023-01-10T05:34:42.271Z,25.90
2023-01-10T05:35:42.436Z,26.40
2023-01-10T05:36:42.574Z,23.90
2023-01-10T05:37:42.735Z,26.30
2023-01-10T05:38:42.894Z,24.90
2023-01-10T05:39:43.053Z,24.60
2023-01-10T05:40:43.198Z,29.00
2023-01-10T05:41:43.358Z,26.70
2023-01-10T05:42:44.538Z,25.00
2023-01-10T05:43:43.692Z,33.10
2023-01-10T05:44:43.838Z,27.50
2023-01-10T05:45:44.021Z,26.80
2023-01-10T05:46:44.133Z,24.60
2023-01-10T05:47:44.285Z,30.90
2023-01-10T05:48:44.429Z,28.20
2023-01-10T05:49:44.616Z,25.40
2023-01-10T05:50:45.084Z,26.90
2023-01-10T05:51:44.915Z,27.30
2023-01-10T05:52:45.014Z,31.10
2023-01-10T05:53:45.129Z,31.40
2023-01-10T05:54:45.190Z,28.00
2023-01-10T05:55:45.445Z,28.00
2023-01-10T05:56:45.543Z,24.70
2023-01-10T05:57:45.590Z,27.00
2023-01-10T05:58:47.385Z,29.10
2023-01-10T05:59:45.945Z,25.10
2023-01-10T06:00:46.093Z,32.40
2023-01-10T06:01:46.259Z,26.50
2023-01-10T06:02:46.507Z,30.60
2023-01-10T06:03:46.558Z,25.30
2023-01-10T06:04:46.719Z,29.00
2023-01-10T06:05:48.784Z,32.60
2023-01-10T06:06:46.967Z,26.70
2023-01-10T06:07:47.272Z,26.00
2023-01-10T06:08:47.285Z,23.90
2023-01-10T06:09:47.460Z,31.30
2023-01-10T06:10:47.609Z,29.30
2023-01-10T06:11:47.765Z,31.00
2023-01-10T06:12:47.911Z,30.30
2023-01-10T06:13:48.101Z,30.60
2023-01-10T06:14:48.264Z,35.50
2023-01-10T06:15:48.461Z,29.10
2023-01-10T06:16:48.506Z,35.10
2023-01-10T06:17:48.682Z,29.80
2023-01-10T06:18:49.193Z,28.70
2023-01-10T06:19:49.160Z,36.30
2023-01-10T06:20:49.188Z,27.40
2023-01-10T06:21:49.431Z,31.70
2023-01-10T06:22:49.371Z,32.70
2023-01-10T06:23:49.671Z,30.50
2023-01-10T06:24:49.800Z,30.10
2023-01-10T06:25:49.744Z,31.30
2023-01-10T06:26:49.888Z,32.00
2023-01-10T06:27:50.050Z,31.40
2023-01-10T06:28:50.211Z,30.50
2023-01-10T06:29:50.379Z,30.90
2023-01-10T06:30:50.608Z,30.90
2023-01-10T06:31:50.662Z,35.50
2023-01-10T06:32:50.837Z,34.60
2023-01-10T06:33:50.989Z,32.20
2023-01-10T06:34:51.126Z,29.40
2023-01-10T06:35:51.350Z,29.90
2023-01-10T06:36:51.387Z,34.40
2023-01-10T06:37:51.547Z,30.10
2023-01-10T06:38:51.687Z,27.50
2023-01-10T06:39:51.918Z,31.50
2023-01-10T06:40:51.953Z,34.20
2023-01-10T06:41:52.137Z,29.60
2023-01-10T06:42:52.297Z,28.10
2023-01-10T06:43:52.476Z,33.20
2023-01-10T06:44:52.663Z,29.80
2023-01-10T06:45:53.221Z,27.30
2023-01-10T06:46:52.958Z,26.80
2023-01-10T06:47:53.113Z,30.30
2023-01-10T06:48:53.336Z,38.00
2023-01-10T06:49:53.404Z,27.70
2023-01-10T06:50:53.463Z,28.40
2023-01-10T06:51:53.623Z,27.30
2023-01-10T06:52:53.788Z,36.50
2023-01-10T06:53:53.958Z,32.70
2023-01-10T06:54:54.112Z,33.70
2023-01-10T06:55:54.275Z,27.70
2023-01-10T06:56:54.414Z,27.30
2023-01-10T06:57:54.570Z,39.90
2023-01-10T06:58:54.719Z,31.40
2023-01-10T06:59:54.890Z,36.00
2023-01-10T07:00:55.156Z,37.60
2023-01-10T07:01:55.331Z,29.20
2023-01-10T07:02:55.269Z,28.30
2023-01-10T07:03:55.542Z,42.80
2023-01-10T07:04:55.635Z,32.90
2023-01-10T07:05:55.716Z,34.90
2023-01-10T07:06:55.787Z,32.00
2023-01-10T07:07:55.949Z,33.70
2023-01-10T07:08:56.098Z,32.00
2023-01-10T07:09:56.368Z,28.70
2023-01-10T07:10:56.410Z,33.40
2023-01-10T07:11:56.586Z,30.20
2023-01-10T07:12:56.737Z,31.10
2023-01-10T07:13:56.987Z,37.30
2023-01-10T07:14:57.037Z,30.60
2023-01-10T07:15:57.245Z,33.40
2023-01-10T07:16:57.479Z,29.00
2023-01-10T07:17:57.552Z,29.80
2023-01-10T07:18:57.599Z,32.00
2023-01-10T07:19:57.769Z,29.00
2023-01-10T07:20:57.941Z,31.50
2023-01-10T07:21:58.128Z,37.20
2023-01-10T07:22:58.381Z,25.60
2023-01-10T07:23:58.868Z,30.40
2023-01-10T07:24:58.516Z,30.30
2023-01-10T07:25:58.596Z,26.40
2023-01-10T07:26:58.661Z,29.30
2023-01-10T07:27:58.738Z,26.90
2023-01-10T07:28:58.939Z,27.40
2023-01-10T07:29:59.017Z,32.40
2023-01-10T07:30:59.294Z,30.90
2023-01-10T07:31:59.361Z,31.50
2023-01-10T07:32:59.520Z,28.60
2023-01-10T07:33:59.710Z,31.80
2023-01-10T07:34:59.879Z,25.80
2023-01-10T07:36:00.078Z,31.00
2023-01-10T07:37:00.152Z,32.00
2023-01-10T07:38:00.327Z,30.90
2023-01-10T07:39:00.499Z,28.80
2023-01-10T07:40:00.712Z,32.50
2023-01-10T07:41:00.775Z,39.50
2023-01-10T07:42:00.838Z,30.40
2023-01-10T07:43:01.084Z,30.70
2023-01-10T07:44:01.158Z,33.10
2023-01-10T07:45:01.344Z,28.70
2023-01-10T07:46:01.552Z,29.50
2023-01-10T07:47:01.636Z,31.70
2023-01-10T07:48:01.818Z,32.70
2023-01-10T07:49:01.887Z,33.20
2023-01-10T07:50:02.007Z,32.00
2023-01-10T07:51:02.097Z,34.20
2023-01-10T07:52:02.152Z,31.10
2023-01-10T07:53:02.331Z,33.70
2023-01-10T07:54:02.519Z,35.10
2023-01-10T07:55:02.685Z,29.00
2023-01-10T07:56:02.896Z,30.40
2023-01-10T07:57:03.039Z,29.20
2023-01-10T07:58:03.220Z,32.70
2023-01-10T07:59:03.388Z,32.90
2023-01-10T08:00:03.516Z,30.30
2023-01-10T08:01:03.616Z,34.60
2023-01-10T08:02:03.686Z,28.80
2023-01-10T08:03:03.879Z,28.10
2023-01-10T08:04:03.835Z,29.30
2023-01-10T08:05:04.113Z,29.10
2023-01-10T08:06:04.183Z,34.00
2023-01-10T08:07:04.372Z,28.80
2023-01-10T08:08:04.434Z,33.80
2023-01-10T08:09:04.587Z,30.50
2023-01-10T08:10:04.769Z,28.20
2023-01-10T08:11:04.936Z,29.50
2023-01-10T08:12:05.021Z,26.30
2023-01-10T08:13:17.947Z,30.30
2023-01-10T08:14:06.424Z,32.10
2023-01-10T08:15:05.402Z,28.90
2023-01-10T08:16:05.522Z,35.70
2023-01-10T08:17:05.556Z,29.40
2023-01-10T08:18:05.726Z,33.20
2023-01-10T08:19:05.875Z,31.10
2023-01-10T08:20:06.049Z,24.10
2023-01-10T08:21:06.210Z,29.00
2023-01-10T08:22:06.386Z,27.50
2023-01-10T08:23:06.532Z,27.40
2023-01-10T08:24:06.706Z,25.90
2023-01-10T08:25:06.862Z,29.70
2023-01-10T08:26:07.034Z,29.30
2023-01-10T08:27:07.165Z,28.50
2023-01-10T08:28:07.348Z,27.40
2023-01-10T08:29:07.480Z,24.90
2023-01-10T08:30:07.654Z,24.40
2023-01-10T08:31:07.841Z,27.10
2023-01-10T08:32:07.935Z,27.20
2023-01-10T08:33:07.964Z,28.00
2023-01-10T08:34:08.160Z,28.40
2023-01-10T08:35:08.305Z,31.50
2023-01-10T08:36:08.376Z,27.80
2023-01-10T08:37:08.453Z,24.50
2023-01-10T08:38:08.697Z,24.70
2023-01-10T08:39:08.843Z,30.60
2023-01-10T08:40:08.967Z,30.70
2023-01-10T08:41:09.003Z,23.60
2023-01-10T08:42:09.171Z,29.80
2023-01-10T08:43:09.379Z,28.00
2023-01-10T08:44:09.410Z,27.20
2023-01-10T08:45:09.554Z,28.30
2023-01-10T08:46:09.768Z,27.50
2023-01-10T08:47:09.774Z,25.00
2023-01-10T08:48:09.961Z,24.80
2023-01-10T08:49:10.169Z,25.60
2023-01-10T08:50:10.297Z,26.80
2023-01-10T08:51:10.487Z,26.60
2023-01-10T08:52:10.623Z,24.10
2023-01-10T08:53:10.794Z,26.80
2023-01-10T08:54:10.923Z,25.30
2023-01-10T08:55:11.051Z,24.70
2023-01-10T08:56:11.265Z,23.50
2023-01-10T08:57:11.310Z,22.10
2023-01-10T08:58:11.405Z,26.30
2023-01-10T08:59:11.449Z,26.80
2023-01-10T09:00:11.632Z,23.60
2023-01-10T09:01:11.674Z,28.40
2023-01-10T09:02:11.829Z,28.20
2023-01-10T09:03:12.027Z,21.80
2023-01-10T09:04:12.060Z,25.40
2023-01-10T09:05:22.140Z,26.60
2023-01-10T09:06:13.286Z,21.70
2023-01-10T09:07:12.412Z,22.20
2023-01-10T09:08:12.541Z,21.10
2023-01-10T09:09:12.668Z,22.10
2023-01-10T09:10:12.795Z,20.80
2023-01-10T09:11:12.909Z,20.90
2023-01-10T09:12:13.015Z,21.50
2023-01-10T09:13:13.139Z,21.00
2023-01-10T09:14:13.238Z,21.00
2023-01-10T09:15:13.373Z,24.40
2023-01-10T09:16:13.503Z,24.20
2023-01-10T09:17:13.627Z,23.60
2023-01-10T09:18:13.732Z,22.60
2023-01-10T09:19:13.837Z,20.00
2023-01-10T09:20:13.953Z,22.60
2023-01-10T09:21:14.072Z,24.70
2023-01-10T09:22:14.173Z,28.10
2023-01-10T09:23:14.286Z,22.20
2023-01-10T09:24:14.386Z,57.70
2023-01-10T09:25:14.550Z,60.20
2023-01-10T09:26:14.662Z,32.20
2023-01-10T09:27:14.787Z,34.50
2023-01-10T09:28:14.926Z,33.80
2023-01-10T09:29:15.013Z,24.00
2023-01-10T09:30:15.120Z,24.70
2023-01-10T09:31:15.239Z,23.80
2023-01-10T09:32:15.339Z,25.20
2023-01-10T09:33:15.437Z,25.10
2023-01-10T09:34:15.542Z,24.80
2023-01-10T09:35:15.779Z,20.80
2023-01-10T09:36:16.061Z,22.60
2023-01-10T09:37:15.875Z,22.50
2023-01-10T09:38:15.976Z,24.10
2023-01-10T09:39:16.087Z,24.40
2023-01-10T09:40:16.205Z,24.40
2023-01-10T09:41:16.302Z,26.00
2023-01-10T09:42:16.397Z,25.10
2023-01-10T09:43:16.536Z,22.90
2023-01-10T09:44:16.630Z,25.30
2023-01-10T09:45:16.759Z,25.20
2023-01-10T09:46:16.882Z,26.30
2023-01-10T09:47:22.432Z,27.20
2023-01-10T09:48:18.030Z,30.00
2023-01-10T09:49:17.166Z,21.80
2023-01-10T09:50:17.283Z,25.80
2023-01-10T09:51:17.400Z,23.70
2023-01-10T09:52:17.516Z,23.30
2023-01-10T09:53:17.651Z,21.80
2023-01-10T09:54:24.744Z,32.40
2023-01-10T09:55:18.653Z,30.00
2023-01-10T09:56:19.744Z,28.50
2023-01-10T09:57:18.131Z,24.40
2023-01-10T09:58:18.223Z,24.60
2023-01-10T09:59:18.347Z,28.00
2023-01-10T10:00:18.531Z,25.40
2023-01-10T10:01:18.656Z,30.50
2023-01-10T10:02:18.681Z,26.10
2023-01-10T10:03:18.850Z,25.00
2023-01-10T10:04:19.013Z,29.40
2023-01-10T10:05:19.060Z,26.80
2023-01-10T10:06:19.179Z,24.00
2023-01-10T10:07:19.346Z,28.70
2023-01-10T10:08:19.443Z,23.30
2023-01-10T10:09:19.568Z,22.30
2023-01-10T10:10:19.697Z,22.60
2023-01-10T10:11:19.820Z,26.60
2023-01-10T10:12:19.937Z,34.70
2023-01-10T10:13:26.926Z,28.30
2023-01-10T10:14:21.112Z,23.10
2023-01-10T10:15:20.255Z,25.90
2023-01-10T10:16:20.415Z,29.20
2023-01-10T10:17:20.554Z,22.90
2023-01-10T10:18:20.564Z,29.40
2023-01-10T10:19:20.673Z,22.80
2023-01-10T10:20:20.765Z,23.60
2023-01-10T10:21:20.873Z,22.70
2023-01-10T10:22:20.968Z,26.20
2023-01-10T10:23:21.072Z,26.60
2023-01-10T10:24:21.136Z,19.90
2023-01-10T10:25:21.273Z,18.70
2023-01-10T10:26:21.353Z,22.80
2023-01-10T10:27:21.471Z,22.20
2023-01-10T10:28:21.543Z,22.40
2023-01-10T10:29:21.640Z,17.30
2023-01-10T10:30:21.747Z,23.50
2023-01-10T10:31:21.897Z,20.70
2023-01-10T10:32:21.961Z,20.40
2023-01-10T10:33:22.054Z,22.80
2023-01-10T10:34:22.139Z,27.10
2023-01-10T10:35:22.318Z,17.40
2023-01-10T10:36:22.287Z,23.60
2023-01-10T10:37:22.391Z,24.80
2023-01-10T10:38:22.492Z,23.20
2023-01-10T10:39:22.615Z,22.80
2023-01-10T10:40:22.710Z,25.60
2023-01-10T10:41:22.836Z,24.70
2023-01-10T10:42:22.937Z,23.40
2023-01-10T10:43:23.048Z,26.70
2023-01-10T10:44:23.151Z,26.00
2023-01-10T10:45:25.379Z,24.80
2023-01-10T10:46:23.406Z,22.80
2023-01-10T10:47:23.514Z,20.30
2023-01-10T10:48:23.615Z,24.20
2023-01-10T10:49:23.735Z,23.90
2023-01-10T10:50:23.838Z,22.10
2023-01-10T10:51:23.962Z,27.20
2023-01-10T10:52:24.115Z,28.30
2023-01-10T10:53:24.121Z,25.30
2023-01-10T10:54:24.206Z,23.90
2023-01-10T10:55:24.340Z,29.50
2023-01-10T10:56:24.438Z,25.80
2023-01-10T10:57:24.541Z,24.30
2023-01-10T10:58:24.640Z,25.10
2023-01-10T10:59:24.751Z,35.80
2023-01-10T11:00:24.868Z,28.20
2023-01-10T11:01:26.617Z,24.20
2023-01-10T11:02:25.016Z,28.80
2023-01-10T11:03:25.135Z,25.40
2023-01-10T11:04:25.296Z,23.50
2023-01-10T11:05:25.379Z,25.90
2023-01-10T11:06:25.484Z,24.90
2023-01-10T11:07:25.585Z,30.50
2023-01-10T11:08:25.694Z,25.90
2023-01-10T11:09:25.804Z,29.10
2023-01-10T11:10:25.932Z,23.30
2023-01-10T11:11:26.045Z,28.10
2023-01-10T11:12:26.155Z,29.50
2023-01-10T11:13:26.265Z,24.10
2023-01-10T11:14:26.375Z,20.10
2023-01-10T11:15:26.504Z,23.20
2023-01-10T11:16:26.688Z,23.20
2023-01-10T11:17:26.686Z,26.10
2023-01-10T11:18:26.766Z,19.80
2023-01-10T11:19:26.860Z,16.20
2023-01-10T11:20:26.953Z,20.40
2023-01-10T11:21:27.057Z,19.50
2023-01-10T11:22:27.144Z,26.50
2023-01-10T11:23:27.245Z,19.90
2023-01-10T11:24:27.326Z,21.60
2023-01-10T11:25:27.464Z,20.90
2023-01-10T11:26:27.538Z,18.70
2023-01-10T11:27:27.634Z,19.00
2023-01-10T11:28:27.726Z,22.90
2023-01-10T11:29:27.817Z,28.20
2023-01-10T11:30:27.911Z,21.50
2023-01-10T11:31:28.049Z,22.30
2023-01-10T11:32:28.104Z,21.70
2023-01-10T11:33:28.191Z,19.10
2023-01-10T11:34:28.253Z,38.10
2023-01-10T11:35:28.356Z,19.20
2023-01-10T11:36:28.417Z,21.90
2023-01-10T11:37:28.495Z,19.20
2023-01-10T11:38:28.581Z,24.10
2023-01-10T11:39:28.632Z,19.30
2023-01-10T11:40:28.712Z,17.10
2023-01-10T11:41:28.779Z,20.00
2023-01-10T11:42:28.846Z,23.50
2023-01-10T11:43:28.911Z,21.50
2023-01-10T11:44:28.973Z,22.30
2023-01-10T11:45:29.041Z,20.80
2023-01-10T11:46:29.089Z,24.70
2023-01-10T11:47:29.938Z,22.80
2023-01-10T11:48:56.191Z,25.10
2023-01-10T11:49:30.293Z,23.80
2023-01-10T11:50:29.379Z,19.60
2023-01-10T11:51:29.460Z,22.10
2023-01-10T11:52:29.577Z,19.20
2023-01-10T11:53:29.629Z,20.20
2023-01-10T11:54:29.707Z,23.10
2023-01-10T11:55:29.815Z,20.50
2023-01-10T11:56:29.902Z,21.80
2023-01-10T11:57:29.995Z,18.80
2023-01-10T11:58:30.061Z,24.20
2023-01-10T11:59:30.163Z,21.70
2023-01-10T12:00:30.248Z,21.70
2023-01-10T12:01:30.376Z,20.60
2023-01-10T12:02:30.423Z,25.50
2023-01-10T12:03:30.537Z,23.30
2023-01-10T12:04:30.577Z,24.80
2023-01-10T12:05:30.745Z,27.20
2023-01-10T12:06:30.688Z,22.20
2023-01-10T12:07:30.782Z,25.30
2023-01-10T12:08:30.877Z,23.40
2023-01-10T12:09:30.969Z,20.30
2023-01-10T12:10:31.091Z,20.90
2023-01-10T12:11:31.181Z,20.00
2023-01-10T12:12:31.290Z,23.10
2023-01-10T12:13:31.363Z,22.10
2023-01-10T12:14:31.437Z,22.90
2023-01-10T12:15:31.539Z,20.30
2023-01-10T12:16:31.660Z,35.00
2023-01-10T12:17:31.721Z,24.70
2023-01-10T12:18:31.783Z,18.50
2023-01-10T12:19:31.836Z,18.50
2023-01-10T12:20:31.911Z,18.00
2023-01-10T12:21:31.967Z,24.10
2023-01-10T12:22:32.018Z,18.70
2023-01-10T12:23:32.064Z,17.60
2023-01-10T12:24:32.097Z,22.40
2023-01-10T12:25:32.181Z,20.40
2023-01-10T12:26:32.218Z,18.00
2023-01-10T12:27:32.266Z,17.80
2023-01-10T12:28:32.318Z,18.70
2023-01-10T12:29:32.366Z,17.70
2023-01-10T12:30:32.481Z,19.90
2023-01-10T12:31:32.404Z,17.60
2023-01-10T12:32:32.454Z,18.40
2023-01-10T12:33:32.497Z,23.50
2023-01-10T12:34:32.507Z,19.40
2023-01-10T12:35:32.568Z,20.80
2023-01-10T12:36:32.598Z,20.70
2023-01-10T12:37:32.637Z,16.90
2023-01-10T12:38:32.654Z,21.10
2023-01-10T12:39:32.694Z,18.00
2023-01-10T12:40:32.731Z,18.30
2023-01-10T12:41:32.764Z,20.40
2023-01-10T12:42:32.804Z,18.80
2023-01-10T12:43:32.827Z,21.80
2023-01-10T12:44:32.882Z,23.30
2023-01-10T12:45:32.931Z,15.60
2023-01-10T12:47:00.379Z,20.10
2023-01-10T12:47:34.044Z,14.80
2023-01-10T12:48:32.940Z,18.20
2023-01-10T12:49:32.999Z,18.40
2023-01-10T12:50:33.035Z,18.10
2023-01-10T12:51:33.086Z,18.00
2023-01-10T12:52:33.133Z,20.00
2023-01-10T12:53:33.193Z,16.30
2023-01-10T12:54:33.234Z,21.30
2023-01-10T12:55:33.319Z,19.40
2023-01-10T12:56:33.384Z,19.00
2023-01-10T12:57:33.432Z,13.80
2023-01-10T12:58:33.493Z,20.80
2023-01-10T12:59:37.693Z,18.90
2023-01-10T13:00:40.499Z,21.20
2023-01-10T13:01:34.811Z,18.20